Time,TemperatureF,DewpointF,PressureIn,WindDirection,WindDirectionDegrees,WindSpeedMPH,WindSpeedGustMPH,Humidity,HourlyPrecipIn,Conditions,Clouds,dailyrainin,SolarRadiationWatts/m^2,SoftwareType,DateUTC
2013-10-20 00:03:00,32.1,30.3,29.74,West,276,0.0,0.0,93,0.00,,SKC,0.00,0.00,VWS V14.00,2013-10-20 05:03:00,
2013-10-20 00:08:00,32.0,30.2,29.74,West,277,0.0,0.0,93,0.00,,SKC,0.00,0.00,VWS V14.00,2013-10-20 05:08:00,
2013-10-20 00:13:00,32.0,30.2,29.74,West,277,0.0,0.0,93,0.00,,SKC,0.00,0.00,VWS V14.00,2013-10-20 05:13:00,
2013-10-20 00:18:00,32.0,30.2,29.73,West,277,0.0,0.0,93,0.00,,SKC,0.00,0.00,VWS V14.00,2013-10-20 05:18:00,
2013-10-20 00:23:00,31.9,30.1,29.74,West,277,0.0,0.0,93,0.00,,SKC,0.00,0.00,VWS V14.00,2013-10-20 05:23:00,
2013-10-20 00:28:00,31.9,30.1,29.73,West,276,0.0,0.0,93,0.00,,SKC,0.00,0.00,VWS V14.00,2013-10-20 05:28:00,
2013-10-20 00:33:00,31.9,30.4,29.73,West,277,0.0,0.0,94,0.00,,SKC,0.00,0.00,VWS V14.00,2013-10-20 05:33:00,
2013-10-20 00:38:00,32.0,32.0,29.73,West,276,0.0,0.0,100,0.00,,SKC,0.00,0.00,VWS V14.00,2013-10-20 05:38:00,
2013-10-20 00:43:00,32.1,30.6,29.73,West,277,0.0,0.0,94,0.00,,SKC,0.00,0.00,VWS V14.00,2013-10-20 05:43:00,
2013-10-20 00:48:00,32.2,30.7,29.73,West,277,0.0,1.0,94,0.00,,SKC,0.00,0.00,VWS V14.00,2013-10-20 05:48:00,
2013-10-20 00:53:00,32.3,30.8,29.72,West,276,1.0,1.0,94,0.00,,SKC,0.00,0.00,VWS V14.00,2013-10-20 05:53:00,
2013-10-20 00:59:00,32.4,30.9,29.72,West,277,0.0,0.0,94,0.00,,SKC,0.00,0.00,VWS V14.00,2013-10-20 05:59:00,
2013-10-20 01:04:00,32.4,30.9,29.72,West,276,0.0,0.0,94,0.00,,SKC,0.00,0.00,VWS V14.00,2013-10-20 06:04:00,
2013-10-20 01:09:00,32.5,31.0,29.72,West,277,0.0,1.0,94,0.00,,SKC,0.00,0.00,VWS V14.00,2013-10-20 06:09:00,
2013-10-20 01:14:00,32.5,31.0,29.72,West,277,0.0,0.0,94,0.00,,SKC,0.00,0.00,VWS V14.00,2013-10-20 06:14:00,
2013-10-20 01:19:00,32.6,31.1,29.72,SSW,194,0.0,0.0,94,0.00,,SKC,0.00,0.00,VWS V14.00,2013-10-20 06:19:00,
2013-10-20 01:24:00,32.7,31.2,29.72,SSW,194,2.0,2.0,94,0.00,,SKC,0.00,0.00,VWS V14.00,2013-10-20 06:24:00,
2013-10-20 01:29:00,32.8,31.3,29.71,SSW,194,1.0,1.0,94,0.00,,SKC,0.00,0.00,VWS V14.00,2013-10-20 06:29:00,
2013-10-20 01:34:00,32.8,31.0,29.71,SSW,194,1.0,1.0,93,0.00,,SKC,0.00,0.00,VWS V14.00,2013-10-20 06:34:00,
2013-10-20 01:39:00,32.9,31.1,29.71,SSW,194,1.0,1.0,93,0.00,,SKC,0.00,0.00,VWS V14.00,2013-10-20 06:39:00,
2013-10-20 01:44:00,32.9,31.1,29.72,SSW,194,0.0,0.0,93,0.00,,SKC,0.00,0.00,VWS V14.00,2013-10-20 06:44:00,
2013-10-20 01:49:00,32.9,30.8,29.72,SSW,194,1.0,2.0,92,0.00,,SKC,0.00,0.00,VWS V14.00,2013-10-20 06:49:00,
2013-10-20 01:54:00,33.0,31.2,29.71,SSE,148,2.0,3.0,93,0.00,,SKC,0.00,0.00,VWS V14.00,2013-10-20 06:54:00,
2013-10-20 01:59:00,33.2,31.4,29.71,SSE,148,2.0,2.0,93,0.00,,SKC,0.00,0.00,VWS V14.00,2013-10-20 06:59:00,
2013-10-20 02:04:00,33.3,31.5,29.71,SSE,148,3.0,3.0,93,0.00,,SKC,0.00,0.00,VWS V14.00,2013-10-20 07:04:00,
2013-10-20 02:09:00,33.3,31.2,29.71,SSE,148,1.0,3.0,92,0.00,,SKC,0.00,0.00,VWS V14.00,2013-10-20 07:09:00,
2013-10-20 02:14:00,33.4,31.3,29.71,SSE,148,1.0,2.0,92,0.00,,SKC,0.00,0.00,VWS V14.00,2013-10-20 07:14:00,
2013-10-20 02:19:00,33.5,31.4,29.71,SSE,148,1.0,2.0,92,0.00,,SKC,0.00,0.00,VWS V14.00,2013-10-20 07:19:00,
2013-10-20 02:24:00,33.6,31.5,29.71,SSE,148,2.0,2.0,92,0.00,,SKC,0.00,0.00,VWS V14.00,2013-10-20 07:24:00,
2013-10-20 02:29:00,33.7,31.6,29.71,SSE,148,3.0,3.0,92,0.00,,SKC,0.00,0.00,VWS V14.00,2013-10-20 07:29:00,
2013-10-20 02:34:00,33.8,31.7,29.71,South,185,0.0,2.0,92,0.00,,SKC,0.00,0.00,VWS V14.00,2013-10-20 07:34:00,
2013-10-20 02:39:00,33.9,31.6,29.71,South,184,1.0,2.0,91,0.00,,SKC,0.00,0.00,VWS V14.00,2013-10-20 07:39:00,
2013-10-20 02:44:00,34.0,31.6,29.71,South,184,0.0,4.0,91,0.00,,SKC,0.00,0.00,VWS V14.00,2013-10-20 07:44:00,
2013-10-20 02:49:00,34.1,31.8,29.71,South,178,4.0,4.0,91,0.00,,SKC,0.00,0.00,VWS V14.00,2013-10-20 07:49:00,
2013-10-20 02:54:00,34.3,32.0,29.72,SSW,198,2.0,5.0,91,0.00,,SKC,0.00,0.00,VWS V14.00,2013-10-20 07:54:00,
2013-10-20 02:59:00,34.4,31.8,29.71,South,171,2.0,2.0,90,0.00,,SKC,0.00,0.00,VWS V14.00,2013-10-20 07:59:00,
2013-10-20 03:04:00,34.4,31.8,29.71,South,171,2.0,2.0,90,0.00,,SKC,0.00,0.00,VWS V14.00,2013-10-20 08:04:00,
2013-10-20 03:09:00,34.4,31.8,29.71,South,171,2.0,2.0,90,0.00,,SKC,0.00,0.00,VWS V14.00,2013-10-20 08:09:00,
2013-10-20 03:14:00,34.4,31.8,29.71,South,171,2.0,2.0,90,0.00,,SKC,0.00,0.00,VWS V14.00,2013-10-20 08:14:00,
2013-10-20 03:19:00,34.4,31.8,29.71,South,171,2.0,2.0,90,0.00,,SKC,0.00,0.00,VWS V14.00,2013-10-20 08:19:00,
2013-10-20 03:24:00,35.1,32.5,29.71,SSW,200,3.0,4.0,90,0.00,,SKC,0.00,0.00,VWS V14.00,2013-10-20 08:24:00,
2013-10-20 03:29:00,35.2,32.6,29.71,SSW,203,4.0,5.0,90,0.00,,SKC,0.00,0.00,VWS V14.00,2013-10-20 08:29:00,
2013-10-20 03:34:00,35.3,32.4,29.70,South,184,4.0,7.0,89,0.00,,SKC,0.00,0.00,VWS V14.00,2013-10-20 08:34:00,
2013-10-20 03:39:00,35.4,31.9,29.70,SSW,194,1.0,7.0,87,0.00,,SKC,0.00,0.00,VWS V14.00,2013-10-20 08:39:00,
2013-10-20 03:44:00,35.5,32.0,29.70,South,169,3.0,5.0,87,0.00,,SKC,0.00,0.00,VWS V14.00,2013-10-20 08:44:00,
2013-10-20 03:49:00,35.6,31.8,29.69,South,178,0.0,4.0,86,0.00,,SKC,0.00,0.00,VWS V14.00,2013-10-20 08:49:00,
2013-10-20 03:54:00,35.6,31.8,29.69,South,178,1.0,4.0,86,0.00,,SKC,0.00,0.00,VWS V14.00,2013-10-20 08:54:00,
2013-10-20 03:59:00,35.7,32.2,29.69,SSE,150,3.0,4.0,87,0.00,,SKC,0.00,0.00,VWS V14.00,2013-10-20 08:59:00,
2013-10-20 04:04:00,35.8,32.0,29.69,SSE,163,2.0,4.0,86,0.00,,SKC,0.00,0.00,VWS V14.00,2013-10-20 09:04:00,
2013-10-20 04:09:00,35.7,31.9,29.69,SSE,165,2.0,5.0,86,0.00,,SKC,0.00,0.00,VWS V14.00,2013-10-20 09:09:00,
2013-10-20 04:14:00,35.7,31.9,29.69,SE,146,4.0,8.0,86,0.00,,SKC,0.00,0.00,VWS V14.00,2013-10-20 09:14:00,
2013-10-20 04:19:00,35.5,31.7,29.68,SSW,195,6.0,6.0,86,0.00,,SKC,0.00,0.00,VWS V14.00,2013-10-20 09:19:00,
2013-10-20 04:24:00,35.4,31.6,29.68,SSE,165,2.0,6.0,86,0.00,,SKC,0.00,0.00,VWS V14.00,2013-10-20 09:24:00,
2013-10-20 04:29:00,35.2,31.7,29.68,South,175,0.0,2.0,87,0.00,,SKC,0.00,0.00,VWS V14.00,2013-10-20 09:29:00,
2013-10-20 04:34:00,35.1,31.6,29.67,South,180,3.0,5.0,87,0.00,,SKC,0.00,0.00,VWS V14.00,2013-10-20 09:34:00,
2013-10-20 04:39:00,35.0,31.8,29.67,SE,140,4.0,6.0,88,0.00,,SKC,0.00,0.00,VWS V14.00,2013-10-20 09:39:00,
2013-10-20 04:44:00,34.9,31.7,29.67,SSE,155,3.0,7.0,88,0.00,,SKC,0.00,0.00,VWS V14.00,2013-10-20 09:44:00,
2013-10-20 04:50:00,34.8,31.6,29.67,SSE,159,2.0,6.0,88,0.00,,SKC,0.00,0.00,VWS V14.00,2013-10-20 09:50:00,
2013-10-20 04:55:00,34.8,31.9,29.66,SE,130,5.0,8.0,89,0.01,,SKC,0.01,0.00,VWS V14.00,2013-10-20 09:55:00,
2013-10-20 05:00:00,34.7,31.8,29.65,ESE,118,5.0,8.0,89,0.01,,SKC,0.01,0.00,VWS V14.00,2013-10-20 10:00:00,
2013-10-20 05:05:00,34.6,32.0,29.65,SE,140,4.0,5.0,90,0.01,,SKC,0.01,0.00,VWS V14.00,2013-10-20 10:05:00,
2013-10-20 05:10:00,34.6,32.0,29.65,SE,146,5.0,7.0,90,0.01,,SKC,0.01,0.00,VWS V14.00,2013-10-20 10:10:00,
2013-10-20 05:15:00,34.5,31.9,29.65,ESE,117,3.0,4.0,90,0.01,,SKC,0.01,0.00,VWS V14.00,2013-10-20 10:15:00,
2013-10-20 05:20:00,34.5,32.2,29.65,SE,131,11.0,11.0,91,0.01,,SKC,0.01,0.00,VWS V14.00,2013-10-20 10:20:00,
2013-10-20 05:25:00,34.5,32.2,29.65,SE,144,5.0,9.0,91,0.01,,SKC,0.01,0.00,VWS V14.00,2013-10-20 10:25:00,
2013-10-20 05:30:00,34.5,32.2,29.65,SE,138,6.0,6.0,91,0.01,,SKC,0.01,0.00,VWS V14.00,2013-10-20 10:30:00,
2013-10-20 05:35:00,34.5,32.2,29.65,South,180,4.0,6.0,91,0.01,,SKC,0.01,0.00,VWS V14.00,2013-10-20 10:35:00,
2013-10-20 05:40:00,34.6,32.2,29.65,SE,142,4.0,6.0,91,0.01,,SKC,0.01,0.00,VWS V14.00,2013-10-20 10:40:00,
2013-10-20 05:45:00,34.6,32.2,29.65,SSE,155,5.0,6.0,91,0.01,,SKC,0.01,0.00,VWS V14.00,2013-10-20 10:45:00,
2013-10-20 05:50:00,34.6,32.2,29.64,SE,131,5.0,8.0,91,0.01,,SKC,0.01,0.00,VWS V14.00,2013-10-20 10:50:00,
2013-10-20 05:55:00,34.6,32.2,29.64,SE,134,4.0,6.0,91,0.00,,SKC,0.01,0.00,VWS V14.00,2013-10-20 10:55:00,
2013-10-20 06:00:00,34.6,32.2,29.64,SE,126,9.0,10.0,91,0.00,,SKC,0.01,0.00,VWS V14.00,2013-10-20 11:00:00,
2013-10-20 06:05:00,34.5,32.2,29.64,ESE,120,5.0,10.0,91,0.00,,SKC,0.01,0.00,VWS V14.00,2013-10-20 11:05:00,
2013-10-20 06:10:00,34.5,32.2,29.63,SE,134,5.0,7.0,91,0.00,,SKC,0.01,0.00,VWS V14.00,2013-10-20 11:10:00,
2013-10-20 06:15:00,34.6,32.2,29.63,SE,146,5.0,13.0,91,0.00,,SKC,0.01,0.00,VWS V14.00,2013-10-20 11:15:00,
2013-10-20 06:20:00,34.6,32.2,29.63,SSE,150,9.0,13.0,91,0.00,,SKC,0.01,0.00,VWS V14.00,2013-10-20 11:20:00,
2013-10-20 06:25:00,34.7,32.3,29.63,SSE,154,5.0,9.0,91,0.00,,SKC,0.01,0.00,VWS V14.00,2013-10-20 11:25:00,
2013-10-20 06:30:00,34.7,32.3,29.63,SSE,165,4.0,7.0,91,0.00,,SKC,0.01,0.00,VWS V14.00,2013-10-20 11:30:00,
2013-10-20 06:35:00,34.8,32.5,29.63,SSE,159,6.0,9.0,91,0.00,,SKC,0.01,0.00,VWS V14.00,2013-10-20 11:35:00,
2013-10-20 06:40:00,34.8,32.5,29.63,SE,146,4.0,6.0,91,0.00,,SKC,0.01,0.00,VWS V14.00,2013-10-20 11:40:00,
2013-10-20 06:45:00,34.8,32.5,29.64,SE,143,6.0,9.0,91,0.00,,SKC,0.01,0.00,VWS V14.00,2013-10-20 11:45:00,
2013-10-20 06:50:00,34.8,32.5,29.63,SSE,148,5.0,5.0,91,0.00,,SKC,0.01,0.00,VWS V14.00,2013-10-20 11:50:00,
2013-10-20 06:55:00,34.9,32.5,29.63,SE,143,5.0,7.0,91,0.00,,SKC,0.01,0.00,VWS V14.00,2013-10-20 11:55:00,
2013-10-20 07:00:00,34.9,32.5,29.63,SE,144,4.0,9.0,91,0.00,,SKC,0.01,0.00,VWS V14.00,2013-10-20 12:00:00,
2013-10-20 07:05:00,34.9,32.5,29.64,SSE,151,3.0,7.0,91,0.00,,SKC,0.01,0.00,VWS V14.00,2013-10-20 12:05:00,
2013-10-20 07:10:00,34.9,32.5,29.64,SSE,156,2.0,10.0,91,0.00,,SKC,0.01,0.00,VWS V14.00,2013-10-20 12:10:00,
2013-10-20 07:15:00,34.9,32.5,29.63,SE,142,3.0,7.0,91,0.00,,SKC,0.01,0.00,VWS V14.00,2013-10-20 12:15:00,
2013-10-20 07:20:00,34.9,32.5,29.63,SE,129,4.0,6.0,91,0.00,,SKC,0.01,0.00,VWS V14.00,2013-10-20 12:20:00,
2013-10-20 07:25:00,34.9,32.3,29.63,SE,132,7.0,10.0,90,0.00,,SKC,0.01,0.00,VWS V14.00,2013-10-20 12:25:00,
2013-10-20 07:30:00,34.9,32.3,29.63,SE,131,4.0,5.0,90,0.00,,SKC,0.01,0.00,VWS V14.00,2013-10-20 12:30:00,
2013-10-20 07:35:00,34.9,32.3,29.62,SSE,152,3.0,3.0,90,0.00,,SKC,0.01,0.00,VWS V14.00,2013-10-20 12:35:00,
2013-10-20 07:40:00,34.9,32.3,29.62,SSE,152,3.0,3.0,90,0.00,,SKC,0.01,0.00,VWS V14.00,2013-10-20 12:40:00,
2013-10-20 07:45:00,34.9,32.3,29.62,SSE,152,3.0,3.0,90,0.00,,SKC,0.01,0.00,VWS V14.00,2013-10-20 12:45:00,
2013-10-20 07:50:00,34.9,32.3,29.62,SSE,152,3.0,3.0,90,0.00,,SKC,0.01,0.00,VWS V14.00,2013-10-20 12:50:00,
2013-10-20 07:55:00,34.9,32.3,29.62,SSE,152,3.0,3.0,90,0.00,,SKC,0.01,0.00,VWS V14.00,2013-10-20 12:55:00,
2013-10-20 08:00:00,34.9,32.3,29.61,SSE,152,3.0,3.0,90,0.00,,SKC,0.01,0.00,VWS V14.00,2013-10-20 13:00:00,
2013-10-20 08:05:00,34.9,32.3,29.61,SSE,152,3.0,3.0,90,0.00,,SKC,0.01,0.00,VWS V14.00,2013-10-20 13:05:00,
2013-10-20 08:10:00,34.9,32.3,29.61,SSE,152,3.0,3.0,90,0.00,,SKC,0.01,0.00,VWS V14.00,2013-10-20 13:10:00,
2013-10-20 08:15:00,34.9,32.3,29.61,SSE,152,3.0,3.0,90,0.00,,SKC,0.01,0.00,VWS V14.00,2013-10-20 13:15:00,
2013-10-20 08:20:00,34.9,32.3,29.61,SSE,152,3.0,3.0,90,0.00,,SKC,0.01,0.00,VWS V14.00,2013-10-20 13:20:00,
2013-10-20 08:25:00,34.9,32.3,29.60,SSE,152,3.0,3.0,90,0.00,,SKC,0.01,0.00,VWS V14.00,2013-10-20 13:25:00,
2013-10-20 08:31:00,34.9,32.3,29.60,SSE,152,3.0,3.0,90,0.00,,SKC,0.01,0.00,VWS V14.00,2013-10-20 13:31:00,
2013-10-20 08:36:00,34.9,32.3,29.60,SSE,152,3.0,3.0,90,0.00,,SKC,0.01,0.00,VWS V14.00,2013-10-20 13:36:00,
2013-10-20 08:41:00,34.9,32.3,29.60,SSE,152,3.0,3.0,90,0.00,,SKC,0.01,0.00,VWS V14.00,2013-10-20 13:41:00,
2013-10-20 08:46:00,34.9,32.3,29.60,SSE,152,3.0,3.0,90,0.00,,SKC,0.01,0.00,VWS V14.00,2013-10-20 13:46:00,
2013-10-20 08:51:00,34.9,32.3,29.60,SSE,152,3.0,3.0,90,0.00,,SKC,0.01,0.00,VWS V14.00,2013-10-20 13:51:00,
2013-10-20 08:56:00,34.9,32.3,29.60,SSE,152,3.0,3.0,90,0.00,,SKC,0.01,0.00,VWS V14.00,2013-10-20 13:56:00,
2013-10-20 09:01:00,34.9,32.3,29.61,SSE,152,3.0,3.0,90,0.00,,SKC,0.01,0.00,VWS V14.00,2013-10-20 14:01:00,
2013-10-20 09:06:00,34.9,32.3,29.61,SSE,152,3.0,3.0,90,0.00,,SKC,0.01,0.00,VWS V14.00,2013-10-20 14:06:00,
2013-10-20 09:11:00,34.9,32.3,29.61,SSE,152,3.0,3.0,90,0.00,,SKC,0.01,0.00,VWS V14.00,2013-10-20 14:11:00,
2013-10-20 09:16:00,34.9,32.3,29.61,SSE,152,3.0,3.0,90,0.00,,SKC,0.01,0.00,VWS V14.00,2013-10-20 14:16:00,
2013-10-20 09:21:00,34.9,32.3,29.61,SSE,152,3.0,3.0,90,0.00,,SKC,0.01,0.00,VWS V14.00,2013-10-20 14:21:00,
2013-10-20 09:26:00,34.9,32.3,29.60,SSE,152,3.0,3.0,90,0.00,,SKC,0.01,0.00,VWS V14.00,2013-10-20 14:26:00,
2013-10-20 09:31:00,34.9,32.3,29.60,SSE,152,3.0,3.0,90,0.00,,SKC,0.01,0.00,VWS V14.00,2013-10-20 14:31:00,
2013-10-20 09:36:00,34.9,32.3,29.60,SSE,152,3.0,3.0,90,0.00,,SKC,0.01,0.00,VWS V14.00,2013-10-20 14:36:00,
2013-10-20 09:41:00,34.9,32.3,29.60,SSE,152,3.0,3.0,90,0.00,,SKC,0.01,0.00,VWS V14.00,2013-10-20 14:41:00,
2013-10-20 09:46:00,34.9,32.3,29.60,SSE,152,3.0,3.0,90,0.00,,SKC,0.01,0.00,VWS V14.00,2013-10-20 14:46:00,
2013-10-20 09:51:00,34.9,32.3,29.60,SSE,152,3.0,3.0,90,0.00,,SKC,0.01,0.00,VWS V14.00,2013-10-20 14:51:00,
2013-10-20 09:56:00,34.9,32.3,29.59,SSE,152,3.0,3.0,90,0.00,,SKC,0.01,0.00,VWS V14.00,2013-10-20 14:56:00,
2013-10-20 10:01:00,34.9,32.3,29.60,SSE,152,3.0,3.0,90,0.00,,SKC,0.01,0.00,VWS V14.00,2013-10-20 15:01:00,
2013-10-20 10:06:00,34.9,32.3,29.59,SSE,152,3.0,3.0,90,0.00,,SKC,0.01,0.00,VWS V14.00,2013-10-20 15:06:00,
2013-10-20 10:11:00,34.9,32.3,29.59,SSE,152,3.0,3.0,90,0.00,,SKC,0.01,0.00,VWS V14.00,2013-10-20 15:11:00,
2013-10-20 10:16:00,34.9,32.3,29.59,SSE,152,3.0,3.0,90,0.00,,SKC,0.01,0.00,VWS V14.00,2013-10-20 15:16:00,
2013-10-20 10:21:00,34.9,32.3,29.59,SSE,152,3.0,3.0,90,0.00,,SKC,0.01,0.00,VWS V14.00,2013-10-20 15:21:00,
2013-10-20 10:26:00,34.9,32.3,29.59,SSE,152,3.0,3.0,90,0.00,,SKC,0.01,0.00,VWS V14.00,2013-10-20 15:26:00,
2013-10-20 10:31:00,34.9,32.3,29.59,SSE,152,3.0,3.0,90,0.00,,SKC,0.01,0.00,VWS V14.00,2013-10-20 15:31:00,
2013-10-20 10:36:00,34.9,32.3,29.58,SSE,152,3.0,3.0,90,0.00,,SKC,0.01,0.00,VWS V14.00,2013-10-20 15:36:00,
2013-10-20 10:41:00,34.9,32.3,29.58,SSE,152,3.0,3.0,90,0.00,,SKC,0.01,0.00,VWS V14.00,2013-10-20 15:41:00,
2013-10-20 10:46:00,34.9,32.3,29.58,SSE,152,3.0,3.0,90,0.00,,SKC,0.01,0.00,VWS V14.00,2013-10-20 15:46:00,
2013-10-20 10:51:00,34.9,32.3,29.58,SSE,152,3.0,3.0,90,0.00,,SKC,0.01,0.00,VWS V14.00,2013-10-20 15:51:00,
2013-10-20 10:56:00,34.9,32.3,29.58,SSE,152,3.0,3.0,90,0.00,,SKC,0.01,0.00,VWS V14.00,2013-10-20 15:56:00,
2013-10-20 11:01:00,34.9,32.3,29.58,SSE,152,3.0,3.0,90,0.00,,SKC,0.01,0.00,VWS V14.00,2013-10-20 16:01:00,
2013-10-20 11:06:00,34.9,32.3,29.58,SSE,152,3.0,3.0,90,0.00,,SKC,0.01,0.00,VWS V14.00,2013-10-20 16:06:00,
2013-10-20 11:11:00,34.9,32.3,29.58,SSE,152,3.0,3.0,90,0.00,,SKC,0.01,0.00,VWS V14.00,2013-10-20 16:11:00,
2013-10-20 11:16:00,34.9,32.3,29.58,SSE,152,3.0,3.0,90,0.00,,SKC,0.01,0.00,VWS V14.00,2013-10-20 16:16:00,
2013-10-20 11:21:00,34.9,32.3,29.58,SSE,152,3.0,3.0,90,0.00,,SKC,0.01,0.00,VWS V14.00,2013-10-20 16:21:00,
2013-10-20 11:26:00,34.9,32.3,29.58,SSE,152,3.0,3.0,90,0.00,,SKC,0.01,0.00,VWS V14.00,2013-10-20 16:26:00,
2013-10-20 11:31:00,34.9,32.3,29.58,SSE,152,3.0,3.0,90,0.00,,SKC,0.01,0.00,VWS V14.00,2013-10-20 16:31:00,
2013-10-20 11:36:00,34.9,32.3,29.58,SSE,152,3.0,3.0,90,0.00,,SKC,0.01,0.00,VWS V14.00,2013-10-20 16:36:00,
2013-10-20 11:38:00,34.9,32.3,29.58,SSE,152,3.0,3.0,90,0.00,,SKC,0.01,0.00,VWS V14.00,2013-10-20 16:38:00,
2013-10-20 11:45:00,34.9,32.3,29.58,SSE,152,3.0,3.0,90,0.00,,SKC,0.01,0.00,VWS V14.00,2013-10-20 16:45:00,
2013-10-20 11:50:00,34.9,32.3,29.58,SSE,152,3.0,3.0,90,0.00,,SKC,0.01,0.00,VWS V14.00,2013-10-20 16:50:00,
2013-10-20 11:55:00,34.9,32.3,29.58,SSE,152,3.0,3.0,90,0.00,,SKC,0.01,0.00,VWS V14.00,2013-10-20 16:55:00,
2013-10-20 12:00:00,34.9,32.3,29.58,SSE,152,3.0,3.0,90,0.00,,SKC,0.01,0.00,VWS V14.00,2013-10-20 17:00:00,
2013-10-20 12:05:00,34.9,32.3,29.58,SSE,152,3.0,3.0,90,0.00,,SKC,0.01,0.00,VWS V14.00,2013-10-20 17:05:00,
2013-10-20 12:10:00,34.9,32.3,29.58,SSE,152,3.0,3.0,90,0.00,,SKC,0.01,0.00,VWS V14.00,2013-10-20 17:10:00,
2013-10-20 12:15:00,34.9,32.3,29.58,SSE,152,3.0,3.0,90,0.00,,SKC,0.01,0.00,VWS V14.00,2013-10-20 17:15:00,
2013-10-20 12:20:00,34.9,32.3,29.58,SSE,152,3.0,3.0,90,0.00,,SKC,0.01,0.00,VWS V14.00,2013-10-20 17:20:00,
2013-10-20 12:25:00,34.9,32.3,29.58,SSE,152,3.0,3.0,90,0.00,,SKC,0.01,0.00,VWS V14.00,2013-10-20 17:25:00,
2013-10-20 12:30:00,34.9,32.3,29.58,SSE,152,3.0,3.0,90,0.00,,SKC,0.01,0.00,VWS V14.00,2013-10-20 17:30:00,
2013-10-20 12:35:00,34.9,32.3,29.58,SSE,152,3.0,3.0,90,0.00,,SKC,0.01,0.00,VWS V14.00,2013-10-20 17:35:00,
2013-10-20 12:40:00,34.9,32.3,29.58,SSE,152,3.0,3.0,90,0.00,,SKC,0.01,0.00,VWS V14.00,2013-10-20 17:40:00,
2013-10-20 12:45:00,34.9,32.3,29.58,SSE,152,3.0,3.0,90,0.00,,SKC,0.01,0.00,VWS V14.00,2013-10-20 17:45:00,
2013-10-20 12:50:00,34.9,32.3,29.58,SSE,152,3.0,3.0,90,0.00,,SKC,0.01,0.00,VWS V14.00,2013-10-20 17:50:00,
2013-10-20 12:55:00,34.9,32.3,29.58,SSE,152,3.0,3.0,90,0.00,,SKC,0.01,0.00,VWS V14.00,2013-10-20 17:55:00,
2013-10-20 13:01:00,34.9,32.3,29.58,SSE,152,3.0,3.0,90,0.00,,SKC,0.01,0.00,VWS V14.00,2013-10-20 18:01:00,
2013-10-20 13:07:00,34.9,32.3,29.58,SSE,152,3.0,3.0,90,0.00,,SKC,0.01,0.00,VWS V14.00,2013-10-20 18:07:00,
2013-10-20 13:12:00,34.9,32.3,29.58,SSE,152,3.0,3.0,90,0.00,,SKC,0.01,0.00,VWS V14.00,2013-10-20 18:12:00,
2013-10-20 13:17:00,34.9,32.3,29.58,SSE,152,3.0,3.0,90,0.00,,SKC,0.01,0.00,VWS V14.00,2013-10-20 18:17:00,
2013-10-20 13:22:00,34.9,32.3,29.58,SSE,152,3.0,3.0,90,0.00,,SKC,0.01,0.00,VWS V14.00,2013-10-20 18:22:00,
2013-10-20 13:27:00,34.9,32.3,29.58,SSE,152,3.0,3.0,90,0.00,,SKC,0.01,0.00,VWS V14.00,2013-10-20 18:27:00,
2013-10-20 13:32:00,34.9,32.3,29.58,SSE,152,3.0,3.0,90,0.00,,SKC,0.01,0.00,VWS V14.00,2013-10-20 18:32:00,
2013-10-20 13:37:00,40.4,38.0,29.59,NNE,19,1.0,3.0,91,0.00,,SKC,0.01,0.00,VWS V14.00,2013-10-20 18:37:00,
2013-10-20 13:42:00,40.4,38.3,29.59,NNE,18,1.0,2.0,92,0.06,,SKC,0.07,90.00,VWS V14.00,2013-10-20 18:42:00,
2013-10-20 13:47:00,40.5,38.4,29.59,NNE,17,0.0,2.0,92,0.06,,SKC,0.07,67.00,VWS V14.00,2013-10-20 18:47:00,
2013-10-20 13:52:00,40.6,38.5,29.59,NNE,17,1.0,1.0,92,0.06,,SKC,0.07,67.00,VWS V14.00,2013-10-20 18:52:00,
2013-10-20 13:57:00,40.6,38.5,29.59,North,355,3.0,3.0,92,0.06,,SKC,0.07,65.00,VWS V14.00,2013-10-20 18:57:00,
2013-10-20 14:02:00,40.5,38.4,29.60,NNW,344,1.0,3.0,92,0.06,,SKC,0.07,77.00,VWS V14.00,2013-10-20 19:02:00,
2013-10-20 14:07:00,40.5,38.4,29.60,NNW,330,0.0,5.0,92,0.06,,SKC,0.07,77.00,VWS V14.00,2013-10-20 19:07:00,
2013-10-20 14:12:00,40.5,38.4,29.60,North,350,2.0,3.0,92,0.06,,SKC,0.07,56.00,VWS V14.00,2013-10-20 19:12:00,
2013-10-20 14:17:00,40.4,38.3,29.61,NW,315,0.0,3.0,92,0.06,,SKC,0.07,47.00,VWS V14.00,2013-10-20 19:17:00,
2013-10-20 14:22:00,40.5,38.6,29.61,NNW,344,2.0,4.0,93,0.06,,SKC,0.07,60.00,VWS V14.00,2013-10-20 19:22:00,
2013-10-20 14:27:00,40.4,38.5,29.61,NE,39,1.0,2.0,93,0.06,,SKC,0.07,58.00,VWS V14.00,2013-10-20 19:27:00,
2013-10-20 14:32:00,40.4,38.5,29.61,NNW,333,0.0,5.0,93,0.06,,SKC,0.07,62.00,VWS V14.00,2013-10-20 19:32:00,
2013-10-20 14:37:00,40.4,38.5,29.62,West,281,2.0,4.0,93,0.06,,SKC,0.07,70.00,VWS V14.00,2013-10-20 19:37:00,
2013-10-20 14:42:00,40.3,38.4,29.62,NW,313,1.0,4.0,93,0.00,,SKC,0.07,84.00,VWS V14.00,2013-10-20 19:42:00,
2013-10-20 14:47:00,40.2,38.3,29.62,NNW,345,4.0,5.0,93,0.00,,SKC,0.07,88.00,VWS V14.00,2013-10-20 19:47:00,
2013-10-20 14:52:00,40.1,38.0,29.63,NW,325,1.0,6.0,92,0.00,,SKC,0.07,83.00,VWS V14.00,2013-10-20 19:52:00,
2013-10-20 14:57:00,40.0,37.9,29.63,NNW,348,1.0,4.0,92,0.00,,SKC,0.07,120.00,VWS V14.00,2013-10-20 19:57:00,
2013-10-20 15:02:00,40.0,37.9,29.64,NW,325,4.0,6.0,92,0.00,,SKC,0.07,63.00,VWS V14.00,2013-10-20 20:02:00,
2013-10-20 15:07:00,39.8,37.7,29.64,NE,49,1.0,7.0,92,0.01,,SKC,0.08,72.00,VWS V14.00,2013-10-20 20:07:00,
2013-10-20 15:12:00,39.7,37.6,29.64,SSE,159,2.0,6.0,92,0.01,,SKC,0.08,69.00,VWS V14.00,2013-10-20 20:12:00,
2013-10-20 15:17:00,39.5,37.4,29.65,North,5,3.0,7.0,92,0.01,,SKC,0.08,58.00,VWS V14.00,2013-10-20 20:17:00,
2013-10-20 15:22:00,39.1,36.7,29.65,NW,317,2.0,6.0,91,0.01,,SKC,0.08,62.00,VWS V14.00,2013-10-20 20:22:00,
2013-10-20 15:27:00,38.9,36.5,29.65,NNW,328,3.0,9.0,91,0.01,,SKC,0.08,65.00,VWS V14.00,2013-10-20 20:27:00,
2013-10-20 15:33:00,38.6,36.5,29.66,North,350,1.0,5.0,92,0.01,,SKC,0.08,84.00,VWS V14.00,2013-10-20 20:33:00,
2013-10-20 15:38:00,38.5,36.4,29.66,NW,315,4.0,7.0,92,0.01,,SKC,0.08,72.00,VWS V14.00,2013-10-20 20:38:00,
2013-10-20 15:43:00,38.4,36.3,29.66,NNW,333,3.0,6.0,92,0.01,,SKC,0.08,42.00,VWS V14.00,2013-10-20 20:43:00,
2013-10-20 15:48:00,38.3,36.2,29.67,NW,316,2.0,7.0,92,0.01,,SKC,0.08,60.00,VWS V14.00,2013-10-20 20:48:00,
2013-10-20 15:53:00,38.2,36.1,29.67,NW,318,3.0,9.0,92,0.01,,SKC,0.08,70.00,VWS V14.00,2013-10-20 20:53:00,
2013-10-20 15:58:00,38.2,36.1,29.68,North,11,1.0,7.0,92,0.01,,SKC,0.08,54.00,VWS V14.00,2013-10-20 20:58:00,
2013-10-20 16:03:00,38.3,36.2,29.68,NW,316,1.0,10.0,92,0.01,,SKC,0.08,83.00,VWS V14.00,2013-10-20 21:03:00,
2013-10-20 16:08:00,38.2,36.1,29.68,NNW,345,3.0,13.0,92,0.01,,SKC,0.08,127.00,VWS V14.00,2013-10-20 21:08:00,
2013-10-20 16:13:00,38.3,36.2,29.69,ENE,58,2.0,6.0,92,0.00,,SKC,0.08,90.00,VWS V14.00,2013-10-20 21:13:00,
2013-10-20 16:18:00,38.3,36.2,29.69,North,11,2.0,7.0,92,0.00,,SKC,0.08,132.00,VWS V14.00,2013-10-20 21:18:00,
2013-10-20 16:23:00,38.3,35.9,29.69,North,5,3.0,11.0,91,0.00,,SKC,0.08,83.00,VWS V14.00,2013-10-20 21:23:00,
2013-10-20 16:28:00,38.3,35.9,29.70,NNW,342,3.0,11.0,91,0.00,,SKC,0.08,128.00,VWS V14.00,2013-10-20 21:28:00,
2013-10-20 16:33:00,38.3,35.9,29.70,WNW,300,5.0,11.0,91,0.00,,SKC,0.08,63.00,VWS V14.00,2013-10-20 21:33:00,
2013-10-20 16:38:00,38.3,35.9,29.71,NW,304,5.0,11.0,91,0.00,,SKC,0.08,37.00,VWS V14.00,2013-10-20 21:38:00,
2013-10-20 16:43:00,38.2,35.5,29.71,North,360,1.0,11.0,90,0.00,,SKC,0.08,40.00,VWS V14.00,2013-10-20 21:43:00,
2013-10-20 16:48:00,38.2,35.5,29.72,WNW,302,4.0,7.0,90,0.00,,SKC,0.08,46.00,VWS V14.00,2013-10-20 21:48:00,
2013-10-20 16:53:00,38.1,35.4,29.72,NNE,13,7.0,11.0,90,0.00,,SKC,0.08,51.00,VWS V14.00,2013-10-20 21:53:00,
2013-10-20 16:58:00,38.0,35.3,29.72,NNW,330,2.0,12.0,90,0.00,,SKC,0.08,39.00,VWS V14.00,2013-10-20 21:58:00,
2013-10-20 17:03:00,38.1,35.4,29.73,NNW,346,4.0,6.0,90,0.00,,SKC,0.08,54.00,VWS V14.00,2013-10-20 22:03:00,
2013-10-20 17:08:00,38.1,35.4,29.73,NNW,336,2.0,9.0,90,0.00,,SKC,0.08,49.00,VWS V14.00,2013-10-20 22:08:00,
2013-10-20 17:13:00,38.2,35.8,29.73,North,351,3.0,5.0,91,0.00,,SKC,0.08,39.00,VWS V14.00,2013-10-20 22:13:00,
2013-10-20 17:18:00,38.1,35.4,29.74,NW,313,2.0,7.0,90,0.00,,SKC,0.08,53.00,VWS V14.00,2013-10-20 22:18:00,
2013-10-20 17:23:00,38.0,35.0,29.74,NNE,19,5.0,10.0,89,0.00,,SKC,0.08,53.00,VWS V14.00,2013-10-20 22:23:00,
2013-10-20 17:28:00,38.0,35.0,29.74,North,5,2.0,12.0,89,0.00,,SKC,0.08,51.00,VWS V14.00,2013-10-20 22:28:00,
2013-10-20 17:33:00,38.1,35.2,29.75,NW,321,0.0,7.0,89,0.00,,SKC,0.08,28.00,VWS V14.00,2013-10-20 22:33:00,
2013-10-20 17:38:00,38.1,35.2,29.75,NNE,22,2.0,6.0,89,0.00,,SKC,0.08,25.00,VWS V14.00,2013-10-20 22:38:00,
2013-10-20 17:43:00,38.1,35.2,29.75,NNE,17,0.0,6.0,89,0.00,,SKC,0.08,28.00,VWS V14.00,2013-10-20 22:43:00,
2013-10-20 17:48:00,38.1,35.2,29.76,NNE,31,2.0,7.0,89,0.00,,SKC,0.08,23.00,VWS V14.00,2013-10-20 22:48:00,
2013-10-20 17:53:00,38.0,35.0,29.76,North,350,2.0,11.0,89,0.00,,SKC,0.08,11.00,VWS V14.00,2013-10-20 22:53:00,
2013-10-20 17:58:00,38.0,35.0,29.76,North,5,3.0,7.0,89,0.00,,SKC,0.08,9.00,VWS V14.00,2013-10-20 22:58:00,
2013-10-20 18:03:00,38.0,35.0,29.77,NNW,327,3.0,10.0,89,0.00,,SKC,0.08,16.00,VWS V14.00,2013-10-20 23:03:00,
2013-10-20 18:08:00,38.0,35.0,29.77,NW,323,0.0,9.0,89,0.00,,SKC,0.08,32.00,VWS V14.00,2013-10-20 23:08:00,
2013-10-20 18:13:00,38.0,35.0,29.77,NNW,331,7.0,9.0,89,0.00,,SKC,0.08,11.00,VWS V14.00,2013-10-20 23:13:00,
2013-10-20 18:18:00,38.0,35.0,29.78,WNW,293,1.0,7.0,89,0.00,,SKC,0.08,7.00,VWS V14.00,2013-10-20 23:18:00,
2013-10-20 18:23:00,37.8,34.6,29.78,North,355,3.0,6.0,88,0.00,,SKC,0.08,5.00,VWS V14.00,2013-10-20 23:23:00,
2013-10-20 18:28:00,37.7,34.5,29.78,North,9,2.0,5.0,88,0.00,,SKC,0.08,0.00,VWS V14.00,2013-10-20 23:28:00,
2013-10-20 18:33:00,37.5,34.3,29.79,NW,323,4.0,8.0,88,0.00,,SKC,0.08,0.00,VWS V14.00,2013-10-20 23:33:00,
2013-10-20 18:38:00,37.4,34.2,29.79,NNW,331,3.0,6.0,88,0.00,,SKC,0.08,0.00,VWS V14.00,2013-10-20 23:38:00,
2013-10-20 18:43:00,37.3,34.1,29.79,WNW,288,2.0,5.0,88,0.00,,SKC,0.08,0.00,VWS V14.00,2013-10-20 23:43:00,
2013-10-20 18:48:00,37.2,34.0,29.79,NNW,333,0.0,4.0,88,0.00,,SKC,0.08,0.00,VWS V14.00,2013-10-20 23:48:00,
2013-10-20 18:53:00,37.1,34.2,29.80,NW,318,1.0,6.0,89,0.00,,SKC,0.08,0.00,VWS V14.00,2013-10-20 23:53:00,
2013-10-20 18:58:00,37.0,34.1,29.80,WNW,297,0.0,2.0,89,0.00,,SKC,0.08,0.00,VWS V14.00,2013-10-20 23:58:00,
2013-10-20 19:03:00,37.0,34.3,29.80,WNW,297,2.0,3.0,90,0.00,,SKC,0.08,0.00,VWS V14.00,2013-10-21 00:03:00,
2013-10-20 19:08:00,37.0,34.3,29.81,WNW,297,0.0,2.0,90,0.00,,SKC,0.08,0.00,VWS V14.00,2013-10-21 00:08:00,
2013-10-20 19:13:00,37.0,34.3,29.81,WNW,297,0.0,4.0,90,0.00,,SKC,0.08,0.00,VWS V14.00,2013-10-21 00:13:00,
2013-10-20 19:19:00,37.0,34.3,29.81,WNW,294,1.0,2.0,90,0.00,,SKC,0.08,0.00,VWS V14.00,2013-10-21 00:19:00,
2013-10-20 19:24:00,37.0,34.3,29.81,WNW,302,2.0,4.0,90,0.00,,SKC,0.08,0.00,VWS V14.00,2013-10-21 00:24:00,
2013-10-20 19:29:00,37.0,34.6,29.81,WNW,288,0.0,1.0,91,0.00,,SKC,0.08,0.00,VWS V14.00,2013-10-21 00:29:00,
2013-10-20 19:34:00,37.0,34.6,29.82,NW,306,1.0,2.0,91,0.00,,SKC,0.08,0.00,VWS V14.00,2013-10-21 00:34:00,
2013-10-20 19:39:00,37.0,34.6,29.82,NW,308,1.0,3.0,91,0.00,,SKC,0.08,0.00,VWS V14.00,2013-10-21 00:39:00,
2013-10-20 19:44:00,37.0,34.6,29.82,NNW,341,0.0,0.0,91,0.00,,SKC,0.08,0.00,VWS V14.00,2013-10-21 00:44:00,
2013-10-20 19:49:00,36.9,34.5,29.82,WNW,302,1.0,2.0,91,0.00,,SKC,0.08,0.00,VWS V14.00,2013-10-21 00:49:00,
2013-10-20 19:54:00,37.0,34.6,29.82,West,280,1.0,1.0,91,0.00,,SKC,0.08,0.00,VWS V14.00,2013-10-21 00:54:00,
2013-10-20 19:59:00,37.1,35.0,29.83,NNW,340,2.0,3.0,92,0.00,,SKC,0.08,0.00,VWS V14.00,2013-10-21 00:59:00,
2013-10-20 20:04:00,37.3,35.2,29.83,NNW,336,2.0,5.0,92,0.00,,SKC,0.08,0.00,VWS V14.00,2013-10-21 01:04:00,
2013-10-20 20:09:00,37.4,35.3,29.83,WNW,291,3.0,5.0,92,0.00,,SKC,0.08,0.00,VWS V14.00,2013-10-21 01:09:00,
2013-10-20 20:14:00,37.4,35.3,29.83,NW,324,2.0,4.0,92,0.00,,SKC,0.08,0.00,VWS V14.00,2013-10-21 01:14:00,
2013-10-20 20:19:00,37.5,35.4,29.84,NNW,331,5.0,9.0,92,0.00,,SKC,0.08,0.00,VWS V14.00,2013-10-21 01:19:00,
2013-10-20 20:24:00,37.5,35.4,29.84,WNW,291,1.0,2.0,92,0.00,,SKC,0.08,0.00,VWS V14.00,2013-10-21 01:24:00,
2013-10-20 20:29:00,37.5,35.4,29.84,SSE,155,1.0,7.0,92,0.00,,SKC,0.08,0.00,VWS V14.00,2013-10-21 01:29:00,
2013-10-20 20:34:00,37.5,35.4,29.84,West,275,4.0,4.0,92,0.00,,SKC,0.08,0.00,VWS V14.00,2013-10-21 01:34:00,
2013-10-20 20:39:00,37.5,35.4,29.84,NW,313,2.0,5.0,92,0.00,,SKC,0.08,0.00,VWS V14.00,2013-10-21 01:39:00,
2013-10-20 20:44:00,37.5,35.4,29.84,NNW,344,0.0,3.0,92,0.00,,SKC,0.08,0.00,VWS V14.00,2013-10-21 01:44:00,
2013-10-20 20:49:00,37.5,35.4,29.85,NNW,331,2.0,3.0,92,0.00,,SKC,0.08,0.00,VWS V14.00,2013-10-21 01:49:00,
2013-10-20 20:54:00,37.5,35.1,29.85,WNW,299,7.0,10.0,91,0.00,,SKC,0.08,0.00,VWS V14.00,2013-10-21 01:54:00,
2013-10-20 20:59:00,37.5,35.1,29.85,NNE,24,4.0,5.0,91,0.00,,SKC,0.08,0.00,VWS V14.00,2013-10-21 01:59:00,
2013-10-20 21:04:00,37.4,34.7,29.86,WNW,290,0.0,2.0,90,0.00,,SKC,0.08,0.00,VWS V14.00,2013-10-21 02:04:00,
2013-10-20 21:09:00,37.5,34.8,29.86,NW,319,1.0,3.0,90,0.00,,SKC,0.08,0.00,VWS V14.00,2013-10-21 02:09:00,
2013-10-20 21:14:00,37.5,34.8,29.86,NNW,335,5.0,8.0,90,0.00,,SKC,0.08,0.00,VWS V14.00,2013-10-21 02:14:00,
2013-10-20 21:19:00,37.4,34.7,29.87,WNW,299,1.0,3.0,90,0.00,,SKC,0.08,0.00,VWS V14.00,2013-10-21 02:19:00,
2013-10-20 21:24:00,37.4,34.5,29.87,ENE,61,3.0,6.0,89,0.00,,SKC,0.08,0.00,VWS V14.00,2013-10-21 02:24:00,
2013-10-20 21:29:00,37.1,33.0,29.87,NNE,32,4.0,9.0,85,0.00,,SKC,0.08,0.00,VWS V14.00,2013-10-21 02:29:00,
2013-10-20 21:34:00,37.0,32.9,29.88,NW,322,3.0,9.0,85,0.00,,SKC,0.08,0.00,VWS V14.00,2013-10-21 02:34:00,
2013-10-20 21:39:00,36.9,32.5,29.88,North,355,2.0,5.0,84,0.00,,SKC,0.08,0.00,VWS V14.00,2013-10-21 02:39:00,
2013-10-20 21:44:00,36.7,32.0,29.88,NW,304,3.0,4.0,83,0.00,,SKC,0.08,0.00,VWS V14.00,2013-10-21 02:44:00,
2013-10-20 21:49:00,36.6,31.9,29.88,NNW,327,3.0,6.0,83,0.00,,SKC,0.08,0.00,VWS V14.00,2013-10-21 02:49:00,
2013-10-20 21:54:00,36.5,31.8,29.88,WNW,288,11.0,12.0,83,0.00,,SKC,0.08,0.00,VWS V14.00,2013-10-21 02:54:00,
2013-10-20 21:59:00,36.4,31.4,29.88,WNW,292,2.0,5.0,82,0.00,,SKC,0.08,0.00,VWS V14.00,2013-10-21 02:59:00,
2013-10-20 22:04:00,36.3,31.6,29.88,NW,318,2.0,9.0,83,0.00,,SKC,0.08,0.00,VWS V14.00,2013-10-21 03:04:00,
2013-10-20 22:09:00,36.2,31.5,29.89,WNW,295,2.0,7.0,83,0.00,,SKC,0.08,0.00,VWS V14.00,2013-10-21 03:09:00,
2013-10-20 22:14:00,36.1,31.5,29.89,WNW,303,4.0,5.0,83,0.00,,SKC,0.08,0.00,VWS V14.00,2013-10-21 03:14:00,
2013-10-20 22:19:00,36.1,31.5,29.89,NW,314,4.0,5.0,83,0.00,,SKC,0.08,0.00,VWS V14.00,2013-10-21 03:19:00,
2013-10-20 22:24:00,36.0,31.4,29.89,North,351,4.0,9.0,83,0.00,,SKC,0.08,0.00,VWS V14.00,2013-10-21 03:24:00,
2013-10-20 22:29:00,35.9,30.6,29.89,NNW,337,1.0,12.0,81,0.00,,SKC,0.08,0.00,VWS V14.00,2013-10-21 03:29:00,
2013-10-20 22:34:00,35.8,30.2,29.89,NW,326,2.0,9.0,80,0.00,,SKC,0.08,0.00,VWS V14.00,2013-10-21 03:34:00,
2013-10-20 22:39:00,35.7,29.5,29.89,NW,312,3.0,7.0,78,0.00,,SKC,0.08,0.00,VWS V14.00,2013-10-21 03:39:00,
2013-10-20 22:44:00,35.6,29.4,29.89,WNW,292,3.0,10.0,78,0.00,,SKC,0.08,0.00,VWS V14.00,2013-10-21 03:44:00,
2013-10-20 22:49:00,35.5,29.6,29.89,NNW,331,1.0,3.0,79,0.00,,SKC,0.08,0.00,VWS V14.00,2013-10-21 03:49:00,
2013-10-20 22:55:00,35.5,30.0,29.89,North,5,1.0,5.0,80,0.00,,SKC,0.08,0.00,VWS V14.00,2013-10-21 03:55:00,
2013-10-20 23:00:00,35.4,29.9,29.89,NNW,339,3.0,11.0,80,0.00,,SKC,0.08,0.00,VWS V14.00,2013-10-21 04:00:00,
2013-10-20 23:01:00,35.3,28.8,29.90,NNW,344,5.0,14.0,77,0.00,,SKC,0.08,0.00,VWS V14.00,2013-10-21 04:01:00,
2013-10-20 23:03:00,35.3,28.8,29.90,NW,307,1.0,14.0,77,0.00,,SKC,0.08,0.00,VWS V14.00,2013-10-21 04:03:00,
2013-10-20 23:08:00,35.2,28.1,29.90,NW,324,3.0,11.0,75,0.00,,SKC,0.08,0.00,VWS V14.00,2013-10-21 04:08:00,
2013-10-20 23:10:00,35.2,28.4,29.90,NW,316,2.0,10.0,76,0.00,,SKC,0.08,0.00,VWS V14.00,2013-10-21 04:10:00,
2013-10-20 23:11:00,35.1,28.0,29.89,NW,311,5.0,10.0,75,0.00,,SKC,0.08,0.00,VWS V14.00,2013-10-21 04:11:00,
2013-10-20 23:16:00,35.0,28.2,29.90,NNW,341,3.0,4.0,76,0.00,,SKC,0.08,0.00,VWS V14.00,2013-10-21 04:16:00,
2013-10-20 23:21:00,34.9,28.1,29.89,North,5,9.0,9.0,76,0.00,,SKC,0.08,0.00,VWS V14.00,2013-10-21 04:21:00,
2013-10-20 23:26:00,34.8,27.7,29.90,North,350,3.0,10.0,75,0.00,,SKC,0.08,0.00,VWS V14.00,2013-10-21 04:26:00,
2013-10-20 23:31:00,34.8,28.0,29.90,East,94,2.0,8.0,76,0.00,,SKC,0.08,0.00,VWS V14.00,2013-10-21 04:31:00,
2013-10-20 23:36:00,34.8,28.0,29.90,West,261,2.0,7.0,76,0.00,,SKC,0.08,0.00,VWS V14.00,2013-10-21 04:36:00,
2013-10-20 23:41:00,34.8,28.3,29.90,WNW,301,2.0,4.0,77,0.00,,SKC,0.08,0.00,VWS V14.00,2013-10-21 04:41:00,
2013-10-20 23:46:00,34.7,27.6,29.90,NNW,331,7.0,13.0,75,0.00,,SKC,0.08,0.00,VWS V14.00,2013-10-21 04:46:00,
2013-10-20 23:51:00,34.7,27.9,29.90,WNW,292,2.0,6.0,76,0.00,,SKC,0.08,0.00,VWS V14.00,2013-10-21 04:51:00,
2013-10-20 23:56:00,34.7,27.6,29.90,ENE,59,4.0,11.0,75,0.00,,SKC,0.08,0.00,VWS V14.00,2013-10-21 04:56:00,